Menahga, Minnesota
Current Conditions -  °F | °C
As of 8:53 PM on Monday 22 Dec 2014 (Local Time) from KPKD Reporting Station
Light Snow Light Snow  
Wind Chill: 29°   Ceiling: 500
Heat Index: 34°   Visibility: 2mi
Dew Point: 32°   Wind: 6mph
Humidity: 92%   Direction: 90°E
Pressure: 29.65"   Gusts: NA
Location:  46.75°N, 95.1°W
Report Text: KPKD 230253Z AUTO 09005KT 2SM -SN BR OVC005 01/00 A2965 RMK AO2 SNB06 SLP057 P0001 60002 T00110000 51014
Loading
Personal Weather Stations






























Interactive Weather Map New forecast layout! Learn more

10-Day Weather Forecast

Advertisements
Track Severe Weather on mobile